sensor_id;sensor_type;location;lat;lon;timestamp;P1;durP1;ratioP1;P2;durP2;ratioP2
75320;SDS011;68337;52.196;5.660;2023-08-24T00:01:15;7.05;;;3.00;;
75320;SDS011;68337;52.196;5.660;2023-08-24T00:03:43;3.95;;;2.80;;
75320;SDS011;68337;52.196;5.660;2023-08-24T00:06:09;4.30;;;2.42;;
75320;SDS011;68337;52.196;5.660;2023-08-24T00:08:36;2.88;;;2.63;;
75320;SDS011;68337;52.196;5.660;2023-08-24T00:11:02;3.28;;;2.80;;
75320;SDS011;68337;52.196;5.660;2023-08-24T00:13:27;3.55;;;3.25;;
75320;SDS011;68337;52.196;5.660;2023-08-24T00:15:53;6.50;;;3.42;;
75320;SDS011;68337;52.196;5.660;2023-08-24T00:18:19;5.38;;;3.45;;
75320;SDS011;68337;52.196;5.660;2023-08-24T00:20:47;3.35;;;3.05;;
75320;SDS011;68337;52.196;5.660;2023-08-24T00:23:13;3.78;;;3.17;;
75320;SDS011;68337;52.196;5.660;2023-08-24T00:25:39;3.47;;;3.17;;
75320;SDS011;68337;52.196;5.660;2023-08-24T00:28:08;3.90;;;2.97;;
75320;SDS011;68337;52.196;5.660;2023-08-24T00:30:34;4.90;;;3.10;;
75320;SDS011;68337;52.196;5.660;2023-08-24T00:32:59;5.03;;;2.85;;
75320;SDS011;68337;52.196;5.660;2023-08-24T00:35:25;4.38;;;3.00;;
75320;SDS011;68337;52.196;5.660;2023-08-24T00:37:51;6.22;;;2.90;;
75320;SDS011;68337;52.196;5.660;2023-08-24T00:40:17;3.78;;;2.70;;
75320;SDS011;68337;52.196;5.660;2023-08-24T00:42:44;2.58;;;2.33;;
75320;SDS011;68337;52.196;5.660;2023-08-24T00:45:13;4.93;;;2.65;;
75320;SDS011;68337;52.196;5.660;2023-08-24T00:47:40;3.92;;;3.22;;
75320;SDS011;68337;52.196;5.660;2023-08-24T00:50:11;5.50;;;4.03;;
75320;SDS011;68337;52.196;5.660;2023-08-24T00:52:38;7.22;;;4.32;;
75320;SDS011;68337;52.196;5.660;2023-08-24T00:55:05;5.32;;;3.60;;
75320;SDS011;68337;52.196;5.660;2023-08-24T00:57:32;3.40;;;3.00;;
75320;SDS011;68337;52.196;5.660;2023-08-24T01:00:02;3.65;;;3.35;;
75320;SDS011;68337;52.196;5.660;2023-08-24T01:02:39;11.85;;;4.10;;
75320;SDS011;68337;52.196;5.660;2023-08-24T01:05:05;5.75;;;4.20;;
75320;SDS011;68337;52.196;5.660;2023-08-24T01:07:32;5.72;;;4.68;;
75320;SDS011;68337;52.196;5.660;2023-08-24T01:10:00;4.75;;;4.10;;
75320;SDS011;68337;52.196;5.660;2023-08-24T01:12:31;6.63;;;4.72;;
75320;SDS011;68337;52.196;5.660;2023-08-24T01:15:07;5.50;;;4.72;;
75320;SDS011;68337;52.196;5.660;2023-08-24T01:17:50;7.57;;;4.78;;
75320;SDS011;68337;52.196;5.660;2023-08-24T01:20:17;4.78;;;4.30;;
75320;SDS011;68337;52.196;5.660;2023-08-24T01:22:54;5.90;;;4.25;;
75320;SDS011;68337;52.196;5.660;2023-08-24T01:25:45;4.90;;;3.97;;
75320;SDS011;68337;52.196;5.660;2023-08-24T01:28:11;4.63;;;4.10;;
75320;SDS011;68337;52.196;5.660;2023-08-24T01:30:39;6.32;;;4.65;;
75320;SDS011;68337;52.196;5.660;2023-08-24T01:33:05;7.28;;;4.68;;
75320;SDS011;68337;52.196;5.660;2023-08-24T01:35:36;5.10;;;4.35;;
75320;SDS011;68337;52.196;5.660;2023-08-24T01:38:03;6.65;;;3.88;;
75320;SDS011;68337;52.196;5.660;2023-08-24T01:40:45;4.85;;;4.07;;
75320;SDS011;68337;52.196;5.660;2023-08-24T01:43:18;5.57;;;3.85;;
75320;SDS011;68337;52.196;5.660;2023-08-24T01:45:50;4.05;;;3.53;;
75320;SDS011;68337;52.196;5.660;2023-08-24T01:48:18;4.97;;;4.07;;
75320;SDS011;68337;52.196;5.660;2023-08-24T01:50:44;8.57;;;4.18;;
75320;SDS011;68337;52.196;5.660;2023-08-24T01:53:11;4.55;;;4.10;;
75320;SDS011;68337;52.196;5.660;2023-08-24T01:55:37;5.72;;;3.80;;
75320;SDS011;68337;52.196;5.660;2023-08-24T01:58:04;5.10;;;3.78;;
75320;SDS011;68337;52.196;5.660;2023-08-24T02:00:29;4.35;;;3.92;;
75320;SDS011;68337;52.196;5.660;2023-08-24T02:02:55;5.03;;;4.05;;
75320;SDS011;68337;52.196;5.660;2023-08-24T02:05:21;7.93;;;5.10;;
75320;SDS011;68337;52.196;5.660;2023-08-24T02:07:49;6.32;;;4.40;;
75320;SDS011;68337;52.196;5.660;2023-08-24T02:10:15;5.28;;;4.85;;
75320;SDS011;68337;52.196;5.660;2023-08-24T02:12:40;6.55;;;4.60;;
75320;SDS011;68337;52.196;5.660;2023-08-24T02:15:06;4.10;;;3.80;;
75320;SDS011;68337;52.196;5.660;2023-08-24T02:17:32;5.15;;;4.35;;
75320;SDS011;68337;52.196;5.660;2023-08-24T02:19:58;5.35;;;4.32;;
75320;SDS011;68337;52.196;5.660;2023-08-24T02:22:24;5.88;;;4.65;;
75320;SDS011;68337;52.196;5.660;2023-08-24T02:24:49;7.50;;;4.40;;
75320;SDS011;68337;52.196;5.660;2023-08-24T02:27:15;5.72;;;4.60;;
75320;SDS011;68337;52.196;5.660;2023-08-24T02:29:41;6.57;;;5.03;;
75320;SDS011;68337;52.196;5.660;2023-08-24T02:32:07;6.95;;;4.93;;
75320;SDS011;68337;52.196;5.660;2023-08-24T02:34:32;6.70;;;4.97;;
75320;SDS011;68337;52.196;5.660;2023-08-24T02:36:58;6.90;;;4.82;;
75320;SDS011;68337;52.196;5.660;2023-08-24T02:39:24;5.00;;;4.50;;
75320;SDS011;68337;52.196;5.660;2023-08-24T02:41:50;6.30;;;4.80;;
75320;SDS011;68337;52.196;5.660;2023-08-24T02:44:16;5.18;;;4.68;;
75320;SDS011;68337;52.196;5.660;2023-08-24T02:46:44;9.07;;;6.00;;
75320;SDS011;68337;52.196;5.660;2023-08-24T02:49:10;8.45;;;5.80;;
75320;SDS011;68337;52.196;5.660;2023-08-24T02:51:35;6.60;;;5.75;;
75320;SDS011;68337;52.196;5.660;2023-08-24T02:54:01;6.78;;;5.05;;
75320;SDS011;68337;52.196;5.660;2023-08-24T02:56:27;6.30;;;5.65;;
75320;SDS011;68337;52.196;5.660;2023-08-24T02:58:53;6.85;;;6.00;;
75320;SDS011;68337;52.196;5.660;2023-08-24T03:01:19;6.43;;;5.80;;
75320;SDS011;68337;52.196;5.660;2023-08-24T03:03:44;7.10;;;6.40;;
75320;SDS011;68337;52.196;5.660;2023-08-24T03:06:10;6.47;;;5.80;;
75320;SDS011;68337;52.196;5.660;2023-08-24T03:08:36;9.45;;;5.72;;
75320;SDS011;68337;52.196;5.660;2023-08-24T03:11:02;7.43;;;5.65;;
75320;SDS011;68337;52.196;5.660;2023-08-24T03:13:28;9.63;;;6.82;;
75320;SDS011;68337;52.196;5.660;2023-08-24T03:15:55;7.22;;;6.05;;
75320;SDS011;68337;52.196;5.660;2023-08-24T03:18:21;8.77;;;5.18;;
75320;SDS011;68337;52.196;5.660;2023-08-24T03:20:47;6.93;;;5.40;;
75320;SDS011;68337;52.196;5.660;2023-08-24T03:23:14;4.80;;;4.38;;
75320;SDS011;68337;52.196;5.660;2023-08-24T03:25:40;6.43;;;5.78;;
75320;SDS011;68337;52.196;5.660;2023-08-24T03:28:07;6.95;;;5.40;;
75320;SDS011;68337;52.196;5.660;2023-08-24T03:30:38;5.32;;;4.70;;
75320;SDS011;68337;52.196;5.660;2023-08-24T03:33:10;5.97;;;5.10;;
75320;SDS011;68337;52.196;5.660;2023-08-24T03:35:35;6.70;;;5.15;;
75320;SDS011;68337;52.196;5.660;2023-08-24T03:38:01;6.97;;;5.53;;
75320;SDS011;68337;52.196;5.660;2023-08-24T03:40:28;10.02;;;5.68;;
75320;SDS011;68337;52.196;5.660;2023-08-24T03:42:53;5.63;;;5.13;;
75320;SDS011;68337;52.196;5.660;2023-08-24T03:45:19;6.15;;;5.55;;
75320;SDS011;68337;52.196;5.660;2023-08-24T03:47:45;7.70;;;5.28;;
75320;SDS011;68337;52.196;5.660;2023-08-24T03:50:11;7.93;;;5.20;;
75320;SDS011;68337;52.196;5.660;2023-08-24T03:52:37;6.68;;;5.22;;
75320;SDS011;68337;52.196;5.660;2023-08-24T03:55:04;5.35;;;4.88;;
75320;SDS011;68337;52.196;5.660;2023-08-24T03:57:31;6.95;;;5.57;;
75320;SDS011;68337;52.196;5.660;2023-08-24T03:59:57;5.78;;;5.10;;
75320;SDS011;68337;52.196;5.660;2023-08-24T04:02:22;6.75;;;4.88;;
75320;SDS011;68337;52.196;5.660;2023-08-24T04:04:49;5.53;;;5.10;;
75320;SDS011;68337;52.196;5.660;2023-08-24T04:07:15;7.72;;;5.53;;
75320;SDS011;68337;52.196;5.660;2023-08-24T04:09:41;7.95;;;5.75;;
75320;SDS011;68337;52.196;5.660;2023-08-24T04:12:07;10.30;;;6.15;;
75320;SDS011;68337;52.196;5.660;2023-08-24T04:14:33;5.25;;;4.72;;
75320;SDS011;68337;52.196;5.660;2023-08-24T04:16:58;6.45;;;4.93;;
75320;SDS011;68337;52.196;5.660;2023-08-24T04:19:24;6.43;;;5.47;;
75320;SDS011;68337;52.196;5.660;2023-08-24T04:21:50;6.85;;;5.40;;
75320;SDS011;68337;52.196;5.660;2023-08-24T04:24:15;5.90;;;5.07;;
75320;SDS011;68337;52.196;5.660;2023-08-24T04:26:41;6.20;;;5.43;;
75320;SDS011;68337;52.196;5.660;2023-08-24T04:29:07;9.05;;;6.20;;
75320;SDS011;68337;52.196;5.660;2023-08-24T04:31:32;7.30;;;5.88;;
75320;SDS011;68337;52.196;5.660;2023-08-24T04:33:58;6.32;;;5.72;;
75320;SDS011;68337;52.196;5.660;2023-08-24T04:36:24;5.90;;;5.38;;
75320;SDS011;68337;52.196;5.660;2023-08-24T04:38:49;7.35;;;5.85;;
75320;SDS011;68337;52.196;5.660;2023-08-24T04:41:15;7.28;;;5.90;;
75320;SDS011;68337;52.196;5.660;2023-08-24T04:43:41;10.00;;;6.32;;
75320;SDS011;68337;52.196;5.660;2023-08-24T04:46:06;6.60;;;5.68;;
75320;SDS011;68337;52.196;5.660;2023-08-24T04:48:34;6.10;;;5.50;;
75320;SDS011;68337;52.196;5.660;2023-08-24T04:51:02;8.82;;;6.28;;
75320;SDS011;68337;52.196;5.660;2023-08-24T04:53:28;7.03;;;5.82;;
75320;SDS011;68337;52.196;5.660;2023-08-24T04:55:54;7.70;;;6.93;;
75320;SDS011;68337;52.196;5.660;2023-08-24T04:58:20;10.18;;;6.97;;
75320;SDS011;68337;52.196;5.660;2023-08-24T05:00:46;9.82;;;6.88;;
75320;SDS011;68337;52.196;5.660;2023-08-24T05:03:13;8.27;;;6.78;;
75320;SDS011;68337;52.196;5.660;2023-08-24T05:05:39;11.88;;;8.15;;
75320;SDS011;68337;52.196;5.660;2023-08-24T05:08:05;9.82;;;7.68;;
75320;SDS011;68337;52.196;5.660;2023-08-24T05:10:35;16.88;;;9.20;;
75320;SDS011;68337;52.196;5.660;2023-08-24T05:13:01;14.73;;;8.65;;
75320;SDS011;68337;52.196;5.660;2023-08-24T05:15:27;13.40;;;7.78;;
75320;SDS011;68337;52.196;5.660;2023-08-24T05:17:53;10.15;;;7.97;;
75320;SDS011;68337;52.196;5.660;2023-08-24T05:20:21;11.75;;;8.23;;
75320;SDS011;68337;52.196;5.660;2023-08-24T05:22:47;9.55;;;8.00;;
75320;SDS011;68337;52.196;5.660;2023-08-24T05:25:13;11.63;;;8.88;;
75320;SDS011;68337;52.196;5.660;2023-08-24T05:27:39;9.07;;;8.20;;
75320;SDS011;68337;52.196;5.660;2023-08-24T05:30:05;14.10;;;9.27;;
75320;SDS011;68337;52.196;5.660;2023-08-24T05:32:32;10.93;;;9.82;;
75320;SDS011;68337;52.196;5.660;2023-08-24T05:34:59;14.32;;;10.30;;
75320;SDS011;68337;52.196;5.660;2023-08-24T05:37:24;15.02;;;9.82;;
75320;SDS011;68337;52.196;5.660;2023-08-24T05:39:50;14.27;;;9.63;;
75320;SDS011;68337;52.196;5.660;2023-08-24T05:42:16;13.43;;;10.10;;
75320;SDS011;68337;52.196;5.660;2023-08-24T05:44:41;15.25;;;11.32;;
75320;SDS011;68337;52.196;5.660;2023-08-24T05:47:07;16.83;;;12.70;;
75320;SDS011;68337;52.196;5.660;2023-08-24T05:49:33;13.27;;;11.20;;
75320;SDS011;68337;52.196;5.660;2023-08-24T05:51:59;11.80;;;10.00;;
75320;SDS011;68337;52.196;5.660;2023-08-24T05:54:28;16.50;;;12.35;;
75320;SDS011;68337;52.196;5.660;2023-08-24T05:56:57;15.02;;;11.85;;
75320;SDS011;68337;52.196;5.660;2023-08-24T05:59:25;14.82;;;11.65;;
75320;SDS011;68337;52.196;5.660;2023-08-24T06:01:51;12.68;;;10.70;;
75320;SDS011;68337;52.196;5.660;2023-08-24T06:04:17;13.32;;;9.77;;
75320;SDS011;68337;52.196;5.660;2023-08-24T06:06:43;13.10;;;10.20;;
75320;SDS011;68337;52.196;5.660;2023-08-24T06:09:10;13.70;;;9.63;;
75320;SDS011;68337;52.196;5.660;2023-08-24T06:11:35;15.10;;;10.07;;
75320;SDS011;68337;52.196;5.660;2023-08-24T06:14:01;11.40;;;9.80;;
75320;SDS011;68337;52.196;5.660;2023-08-24T06:16:28;11.63;;;8.73;;
75320;SDS011;68337;52.196;5.660;2023-08-24T06:18:55;12.48;;;10.10;;
75320;SDS011;68337;52.196;5.660;2023-08-24T06:21:21;13.35;;;9.75;;
75320;SDS011;68337;52.196;5.660;2023-08-24T06:23:49;11.10;;;9.10;;
75320;SDS011;68337;52.196;5.660;2023-08-24T06:26:15;10.10;;;8.48;;
75320;SDS011;68337;52.196;5.660;2023-08-24T06:28:42;10.70;;;8.02;;
75320;SDS011;68337;52.196;5.660;2023-08-24T06:31:10;9.95;;;8.30;;
75320;SDS011;68337;52.196;5.660;2023-08-24T06:33:41;11.68;;;10.32;;
75320;SDS011;68337;52.196;5.660;2023-08-24T06:36:07;17.50;;;11.02;;
75320;SDS011;68337;52.196;5.660;2023-08-24T06:38:33;11.85;;;9.07;;
75320;SDS011;68337;52.196;5.660;2023-08-24T06:41:00;10.60;;;7.95;;
75320;SDS011;68337;52.196;5.660;2023-08-24T06:43:29;9.88;;;7.38;;
75320;SDS011;68337;52.196;5.660;2023-08-24T06:46:03;19.23;;;7.35;;
75320;SDS011;68337;52.196;5.660;2023-08-24T06:48:35;9.23;;;7.30;;
75320;SDS011;68337;52.196;5.660;2023-08-24T06:51:07;8.45;;;7.60;;
75320;SDS011;68337;52.196;5.660;2023-08-24T06:53:36;10.68;;;6.82;;
75320;SDS011;68337;52.196;5.660;2023-08-24T06:58:40;8.35;;;6.70;;
75320;SDS011;68337;52.196;5.660;2023-08-24T07:01:10;13.85;;;7.50;;
75320;SDS011;68337;52.196;5.660;2023-08-24T07:03:37;8.82;;;6.63;;
75320;SDS011;68337;52.196;5.660;2023-08-24T07:06:06;8.23;;;6.28;;
75320;SDS011;68337;52.196;5.660;2023-08-24T07:08:33;11.35;;;6.75;;
75320;SDS011;68337;52.196;5.660;2023-08-24T07:11:00;8.40;;;6.88;;
75320;SDS011;68337;52.196;5.660;2023-08-24T07:13:27;10.95;;;6.30;;
75320;SDS011;68337;52.196;5.660;2023-08-24T07:15:53;8.00;;;6.95;;
75320;SDS011;68337;52.196;5.660;2023-08-24T07:18:20;10.38;;;5.97;;
75320;SDS011;68337;52.196;5.660;2023-08-24T07:20:46;12.27;;;7.55;;
75320;SDS011;68337;52.196;5.660;2023-08-24T07:23:11;11.85;;;9.23;;
75320;SDS011;68337;52.196;5.660;2023-08-24T07:25:37;7.60;;;6.78;;
75320;SDS011;68337;52.196;5.660;2023-08-24T07:28:03;6.97;;;5.97;;
75320;SDS011;68337;52.196;5.660;2023-08-24T07:30:30;7.03;;;5.97;;
75320;SDS011;68337;52.196;5.660;2023-08-24T07:32:56;7.88;;;6.03;;
75320;SDS011;68337;52.196;5.660;2023-08-24T07:35:22;11.63;;;6.80;;
75320;SDS011;68337;52.196;5.660;2023-08-24T07:37:51;6.90;;;6.20;;
75320;SDS011;68337;52.196;5.660;2023-08-24T07:40:17;9.60;;;6.32;;
75320;SDS011;68337;52.196;5.660;2023-08-24T07:42:44;9.20;;;6.20;;
75320;SDS011;68337;52.196;5.660;2023-08-24T07:45:10;12.50;;;6.47;;
75320;SDS011;68337;52.196;5.660;2023-08-24T07:47:37;8.90;;;6.10;;
75320;SDS011;68337;52.196;5.660;2023-08-24T07:50:02;9.77;;;6.00;;
75320;SDS011;68337;52.196;5.660;2023-08-24T07:52:28;7.38;;;6.68;;
75320;SDS011;68337;52.196;5.660;2023-08-24T07:54:54;7.63;;;6.22;;
75320;SDS011;68337;52.196;5.660;2023-08-24T07:57:24;7.28;;;5.85;;
75320;SDS011;68337;52.196;5.660;2023-08-24T07:59:51;8.45;;;5.35;;
75320;SDS011;68337;52.196;5.660;2023-08-24T08:02:17;10.75;;;5.57;;
75320;SDS011;68337;52.196;5.660;2023-08-24T08:04:43;6.65;;;5.35;;
75320;SDS011;68337;52.196;5.660;2023-08-24T08:07:09;8.88;;;5.88;;
75320;SDS011;68337;52.196;5.660;2023-08-24T08:09:36;9.50;;;5.85;;
75320;SDS011;68337;52.196;5.660;2023-08-24T08:12:02;7.13;;;4.85;;
75320;SDS011;68337;52.196;5.660;2023-08-24T08:14:28;6.82;;;4.72;;
75320;SDS011;68337;52.196;5.660;2023-08-24T08:16:54;9.15;;;5.05;;
75320;SDS011;68337;52.196;5.660;2023-08-24T08:19:21;8.10;;;4.38;;
75320;SDS011;68337;52.196;5.660;2023-08-24T08:21:47;6.57;;;4.30;;
75320;SDS011;68337;52.196;5.660;2023-08-24T08:24:12;4.40;;;3.60;;
75320;SDS011;68337;52.196;5.660;2023-08-24T08:26:38;5.38;;;4.15;;
75320;SDS011;68337;52.196;5.660;2023-08-24T08:29:04;5.78;;;3.78;;
75320;SDS011;68337;52.196;5.660;2023-08-24T08:31:30;7.53;;;3.55;;
75320;SDS011;68337;52.196;5.660;2023-08-24T08:33:56;8.00;;;3.45;;
75320;SDS011;68337;52.196;5.660;2023-08-24T08:36:22;5.35;;;3.45;;
75320;SDS011;68337;52.196;5.660;2023-08-24T08:38:47;5.43;;;3.95;;
75320;SDS011;68337;52.196;5.660;2023-08-24T08:41:14;6.22;;;2.90;;
75320;SDS011;68337;52.196;5.660;2023-08-24T08:43:42;6.18;;;3.15;;
75320;SDS011;68337;52.196;5.660;2023-08-24T08:46:08;4.30;;;3.30;;
75320;SDS011;68337;52.196;5.660;2023-08-24T08:48:34;5.13;;;2.97;;
75320;SDS011;68337;52.196;5.660;2023-08-24T08:51:01;8.82;;;3.25;;
75320;SDS011;68337;52.196;5.660;2023-08-24T08:53:27;6.07;;;3.70;;
75320;SDS011;68337;52.196;5.660;2023-08-24T08:55:54;5.18;;;4.13;;
75320;SDS011;68337;52.196;5.660;2023-08-24T08:58:20;7.18;;;3.78;;
75320;SDS011;68337;52.196;5.660;2023-08-24T09:00:46;6.25;;;4.00;;
75320;SDS011;68337;52.196;5.660;2023-08-24T09:03:14;10.80;;;4.57;;
75320;SDS011;68337;52.196;5.660;2023-08-24T09:05:44;5.07;;;4.28;;
75320;SDS011;68337;52.196;5.660;2023-08-24T09:08:13;6.40;;;4.32;;
75320;SDS011;68337;52.196;5.660;2023-08-24T09:10:41;6.20;;;4.40;;
75320;SDS011;68337;52.196;5.660;2023-08-24T09:13:07;6.20;;;4.53;;
75320;SDS011;68337;52.196;5.660;2023-08-24T09:15:36;8.43;;;5.10;;
75320;SDS011;68337;52.196;5.660;2023-08-24T09:18:02;10.70;;;5.30;;
75320;SDS011;68337;52.196;5.660;2023-08-24T09:20:28;9.25;;;4.90;;
75320;SDS011;68337;52.196;5.660;2023-08-24T09:22:54;8.82;;;4.90;;
75320;SDS011;68337;52.196;5.660;2023-08-24T09:25:23;7.70;;;5.25;;
75320;SDS011;68337;52.196;5.660;2023-08-24T09:27:59;14.55;;;6.00;;
75320;SDS011;68337;52.196;5.660;2023-08-24T09:30:31;10.68;;;3.85;;
75320;SDS011;68337;52.196;5.660;2023-08-24T09:33:09;5.90;;;3.65;;
75320;SDS011;68337;52.196;5.660;2023-08-24T09:35:36;10.18;;;3.72;;
75320;SDS011;68337;52.196;5.660;2023-08-24T09:38:21;9.82;;;3.75;;
75320;SDS011;68337;52.196;5.660;2023-08-24T09:40:51;8.98;;;3.13;;
75320;SDS011;68337;52.196;5.660;2023-08-24T09:43:18;7.05;;;3.22;;
75320;SDS011;68337;52.196;5.660;2023-08-24T09:45:53;8.45;;;3.50;;
75320;SDS011;68337;52.196;5.660;2023-08-24T09:48:21;3.78;;;3.47;;
75320;SDS011;68337;52.196;5.660;2023-08-24T09:50:50;6.32;;;3.63;;
75320;SDS011;68337;52.196;5.660;2023-08-24T09:53:17;7.10;;;3.72;;
75320;SDS011;68337;52.196;5.660;2023-08-24T09:55:54;4.63;;;3.47;;
75320;SDS011;68337;52.196;5.660;2023-08-24T09:58:23;4.88;;;3.00;;
75320;SDS011;68337;52.196;5.660;2023-08-24T10:00:49;4.95;;;2.72;;
75320;SDS011;68337;52.196;5.660;2023-08-24T10:03:16;5.75;;;2.70;;
75320;SDS011;68337;52.196;5.660;2023-08-24T10:05:53;5.40;;;2.85;;
75320;SDS011;68337;52.196;5.660;2023-08-24T10:08:20;7.15;;;2.75;;
75320;SDS011;68337;52.196;5.660;2023-08-24T10:10:50;7.53;;;3.03;;
75320;SDS011;68337;52.196;5.660;2023-08-24T10:13:23;6.55;;;3.53;;
75320;SDS011;68337;52.196;5.660;2023-08-24T10:16:18;7.00;;;3.03;;
75320;SDS011;68337;52.196;5.660;2023-08-24T10:18:46;4.40;;;3.20;;
75320;SDS011;68337;52.196;5.660;2023-08-24T10:21:13;12.35;;;4.28;;
75320;SDS011;68337;52.196;5.660;2023-08-24T10:23:40;5.07;;;2.85;;
75320;SDS011;68337;52.196;5.660;2023-08-24T10:26:08;7.13;;;3.80;;
75320;SDS011;68337;52.196;5.660;2023-08-24T10:28:36;8.50;;;3.60;;
75320;SDS011;68337;52.196;5.660;2023-08-24T10:31:01;5.38;;;3.97;;
75320;SDS011;68337;52.196;5.660;2023-08-24T10:33:28;9.13;;;4.38;;
75320;SDS011;68337;52.196;5.660;2023-08-24T10:35:55;6.05;;;3.50;;
75320;SDS011;68337;52.196;5.660;2023-08-24T10:38:28;8.40;;;5.32;;
75320;SDS011;68337;52.196;5.660;2023-08-24T10:40:55;9.50;;;4.95;;
75320;SDS011;68337;52.196;5.660;2023-08-24T10:43:33;7.05;;;4.78;;
75320;SDS011;68337;52.196;5.660;2023-08-24T10:46:03;10.35;;;5.93;;
75320;SDS011;68337;52.196;5.660;2023-08-24T10:53:45;17.85;;;11.38;;
75320;SDS011;68337;52.196;5.660;2023-08-24T10:56:16;9.10;;;5.38;;
75320;SDS011;68337;52.196;5.660;2023-08-24T10:58:43;9.02;;;6.40;;
75320;SDS011;68337;52.196;5.660;2023-08-24T11:03:48;7.85;;;4.82;;
75320;SDS011;68337;52.196;5.660;2023-08-24T11:06:25;7.95;;;4.30;;
75320;SDS011;68337;52.196;5.660;2023-08-24T11:09:06;11.18;;;6.22;;
75320;SDS011;68337;52.196;5.660;2023-08-24T11:11:39;6.88;;;6.18;;
75320;SDS011;68337;52.196;5.660;2023-08-24T11:14:25;11.70;;;6.65;;
75320;SDS011;68337;52.196;5.660;2023-08-24T11:17:01;9.70;;;6.10;;
75320;SDS011;68337;52.196;5.660;2023-08-24T11:19:48;9.07;;;5.97;;
75320;SDS011;68337;52.196;5.660;2023-08-24T11:22:18;8.48;;;6.07;;
75320;SDS011;68337;52.196;5.660;2023-08-24T11:24:44;10.07;;;6.25;;
75320;SDS011;68337;52.196;5.660;2023-08-24T11:27:10;7.00;;;4.68;;
75320;SDS011;68337;52.196;5.660;2023-08-24T11:29:36;7.90;;;5.20;;
75320;SDS011;68337;52.196;5.660;2023-08-24T11:32:02;9.80;;;5.43;;
75320;SDS011;68337;52.196;5.660;2023-08-24T11:34:28;9.63;;;5.50;;
75320;SDS011;68337;52.196;5.660;2023-08-24T11:36:57;10.98;;;7.55;;
75320;SDS011;68337;52.196;5.660;2023-08-24T11:39:23;9.15;;;6.03;;
75320;SDS011;68337;52.196;5.660;2023-08-24T11:44:56;9.75;;;6.10;;
75320;SDS011;68337;52.196;5.660;2023-08-24T11:47:21;8.20;;;5.78;;
75320;SDS011;68337;52.196;5.660;2023-08-24T11:49:48;16.38;;;6.70;;
75320;SDS011;68337;52.196;5.660;2023-08-24T11:52:14;11.20;;;7.70;;
75320;SDS011;68337;52.196;5.660;2023-08-24T11:54:41;11.90;;;7.35;;
75320;SDS011;68337;52.196;5.660;2023-08-24T11:57:08;12.32;;;8.90;;
75320;SDS011;68337;52.196;5.660;2023-08-24T11:59:34;11.73;;;8.00;;
75320;SDS011;68337;52.196;5.660;2023-08-24T12:02:10;11.63;;;7.00;;
75320;SDS011;68337;52.196;5.660;2023-08-24T12:04:50;14.15;;;7.90;;
75320;SDS011;68337;52.196;5.660;2023-08-24T12:07:30;15.13;;;8.32;;
75320;SDS011;68337;52.196;5.660;2023-08-24T12:09:59;16.15;;;7.32;;
75320;SDS011;68337;52.196;5.660;2023-08-24T12:12:26;13.90;;;6.80;;
75320;SDS011;68337;52.196;5.660;2023-08-24T12:14:54;8.55;;;6.38;;
75320;SDS011;68337;52.196;5.660;2023-08-24T12:17:22;9.88;;;6.78;;
75320;SDS011;68337;52.196;5.660;2023-08-24T12:19:58;12.65;;;7.60;;
75320;SDS011;68337;52.196;5.660;2023-08-24T12:22:29;10.98;;;7.07;;
75320;SDS011;68337;52.196;5.660;2023-08-24T12:24:55;16.10;;;6.40;;
75320;SDS011;68337;52.196;5.660;2023-08-24T12:27:26;9.32;;;5.63;;
75320;SDS011;68337;52.196;5.660;2023-08-24T12:29:52;8.10;;;5.65;;
75320;SDS011;68337;52.196;5.660;2023-08-24T12:32:18;9.27;;;5.07;;
75320;SDS011;68337;52.196;5.660;2023-08-24T12:34:47;8.93;;;4.82;;
75320;SDS011;68337;52.196;5.660;2023-08-24T12:37:17;9.18;;;6.00;;
75320;SDS011;68337;52.196;5.660;2023-08-24T12:39:43;11.77;;;5.05;;
75320;SDS011;68337;52.196;5.660;2023-08-24T12:42:12;6.85;;;5.13;;
75320;SDS011;68337;52.196;5.660;2023-08-24T12:44:38;10.20;;;5.82;;
75320;SDS011;68337;52.196;5.660;2023-08-24T12:47:04;9.55;;;4.35;;
75320;SDS011;68337;52.196;5.660;2023-08-24T12:49:30;6.78;;;4.43;;
75320;SDS011;68337;52.196;5.660;2023-08-24T12:51:55;7.82;;;4.40;;
75320;SDS011;68337;52.196;5.660;2023-08-24T12:54:21;11.38;;;4.85;;
75320;SDS011;68337;52.196;5.660;2023-08-24T12:56:50;10.88;;;5.65;;
75320;SDS011;68337;52.196;5.660;2023-08-24T12:59:16;16.25;;;6.22;;
75320;SDS011;68337;52.196;5.660;2023-08-24T13:01:44;12.18;;;6.45;;
75320;SDS011;68337;52.196;5.660;2023-08-24T13:04:39;18.58;;;13.13;;
75320;SDS011;68337;52.196;5.660;2023-08-24T13:07:04;15.55;;;8.95;;
75320;SDS011;68337;52.196;5.660;2023-08-24T13:09:30;14.50;;;8.68;;
75320;SDS011;68337;52.196;5.660;2023-08-24T13:11:56;8.85;;;5.70;;
75320;SDS011;68337;52.196;5.660;2023-08-24T13:14:22;7.97;;;5.50;;
75320;SDS011;68337;52.196;5.660;2023-08-24T13:16:48;8.77;;;4.93;;
75320;SDS011;68337;52.196;5.660;2023-08-24T13:19:14;10.07;;;4.53;;
75320;SDS011;68337;52.196;5.660;2023-08-24T13:21:40;8.93;;;4.72;;
75320;SDS011;68337;52.196;5.660;2023-08-24T13:24:06;7.47;;;4.82;;
75320;SDS011;68337;52.196;5.660;2023-08-24T13:26:31;7.50;;;4.80;;
75320;SDS011;68337;52.196;5.660;2023-08-24T13:29:05;5.78;;;4.18;;
75320;SDS011;68337;52.196;5.660;2023-08-24T13:31:30;6.85;;;4.30;;
75320;SDS011;68337;52.196;5.660;2023-08-24T13:33:56;7.03;;;4.15;;
75320;SDS011;68337;52.196;5.660;2023-08-24T13:36:22;11.90;;;4.72;;
75320;SDS011;68337;52.196;5.660;2023-08-24T13:38:47;8.50;;;4.90;;
75320;SDS011;68337;52.196;5.660;2023-08-24T13:41:15;9.77;;;4.70;;
75320;SDS011;68337;52.196;5.660;2023-08-24T13:43:40;7.10;;;4.18;;
75320;SDS011;68337;52.196;5.660;2023-08-24T13:46:07;6.63;;;3.88;;
75320;SDS011;68337;52.196;5.660;2023-08-24T13:48:32;4.97;;;3.65;;
75320;SDS011;68337;52.196;5.660;2023-08-24T13:50:59;6.82;;;4.47;;
75320;SDS011;68337;52.196;5.660;2023-08-24T13:53:25;9.05;;;4.80;;
75320;SDS011;68337;52.196;5.660;2023-08-24T13:55:50;7.53;;;5.97;;
75320;SDS011;68337;52.196;5.660;2023-08-24T13:58:16;13.05;;;6.22;;
75320;SDS011;68337;52.196;5.660;2023-08-24T14:00:42;10.65;;;6.93;;
75320;SDS011;68337;52.196;5.660;2023-08-24T14:03:07;13.07;;;5.38;;
75320;SDS011;68337;52.196;5.660;2023-08-24T14:05:38;13.18;;;7.85;;
75320;SDS011;68337;52.196;5.660;2023-08-24T14:08:04;8.57;;;5.15;;
75320;SDS011;68337;52.196;5.660;2023-08-24T14:10:30;7.18;;;6.18;;
75320;SDS011;68337;52.196;5.660;2023-08-24T14:12:56;12.35;;;7.60;;
75320;SDS011;68337;52.196;5.660;2023-08-24T14:15:22;15.82;;;8.25;;
75320;SDS011;68337;52.196;5.660;2023-08-24T14:17:47;11.07;;;7.63;;
75320;SDS011;68337;52.196;5.660;2023-08-24T14:20:13;10.13;;;6.70;;
75320;SDS011;68337;52.196;5.660;2023-08-24T14:22:39;15.77;;;8.23;;
75320;SDS011;68337;52.196;5.660;2023-08-24T14:25:05;9.32;;;5.88;;
75320;SDS011;68337;52.196;5.660;2023-08-24T14:27:31;10.02;;;7.30;;
75320;SDS011;68337;52.196;5.660;2023-08-24T14:29:57;14.20;;;7.10;;
75320;SDS011;68337;52.196;5.660;2023-08-24T14:32:22;7.07;;;4.90;;
75320;SDS011;68337;52.196;5.660;2023-08-24T14:34:48;17.13;;;7.47;;
75320;SDS011;68337;52.196;5.660;2023-08-24T14:37:14;12.88;;;7.63;;
75320;SDS011;68337;52.196;5.660;2023-08-24T14:39:39;13.23;;;7.70;;
75320;SDS011;68337;52.196;5.660;2023-08-24T14:42:05;11.43;;;6.43;;
75320;SDS011;68337;52.196;5.660;2023-08-24T14:44:32;14.02;;;6.60;;
75320;SDS011;68337;52.196;5.660;2023-08-24T14:46:58;14.70;;;8.85;;
75320;SDS011;68337;52.196;5.660;2023-08-24T14:49:24;13.60;;;9.43;;
75320;SDS011;68337;52.196;5.660;2023-08-24T14:51:50;14.90;;;11.63;;
75320;SDS011;68337;52.196;5.660;2023-08-24T14:54:15;17.98;;;10.32;;
75320;SDS011;68337;52.196;5.660;2023-08-24T14:56:41;16.95;;;11.90;;
75320;SDS011;68337;52.196;5.660;2023-08-24T14:59:07;17.23;;;10.77;;